createdAt,value
2018-08-10T00:00:36.234Z,0.00
2018-08-10T00:01:36.159Z,0.00
2018-08-10T00:02:36.159Z,0.00
2018-08-10T00:03:35.971Z,0.00
2018-08-10T00:04:35.879Z,0.00
2018-08-10T00:05:35.797Z,0.00
2018-08-10T00:06:35.721Z,0.00
2018-08-10T00:07:35.614Z,0.00
2018-08-10T00:08:35.531Z,0.00
2018-08-10T00:09:35.538Z,0.00
2018-08-10T00:10:35.353Z,0.00
2018-08-10T00:11:35.280Z,0.00
2018-08-10T00:12:35.213Z,0.00
2018-08-10T00:13:35.089Z,0.00
2018-08-10T00:14:34.997Z,0.00
2018-08-10T00:15:34.912Z,0.00
2018-08-10T00:16:34.937Z,0.00
2018-08-10T00:17:34.734Z,0.00
2018-08-10T00:18:34.650Z,0.00
2018-08-10T00:19:34.557Z,0.00
2018-08-10T00:20:34.468Z,0.00
2018-08-10T00:21:34.395Z,0.00
2018-08-10T00:22:34.297Z,0.00
2018-08-10T00:23:34.304Z,0.00
2018-08-10T00:24:34.116Z,0.00
2018-08-10T00:25:34.029Z,0.00
2018-08-10T00:26:33.960Z,0.00
2018-08-10T00:27:33.855Z,0.00
2018-08-10T00:28:33.768Z,0.00
2018-08-10T00:29:33.678Z,0.00
2018-08-10T00:30:33.699Z,0.00
2018-08-10T00:31:33.519Z,0.00
2018-08-10T00:32:33.414Z,0.00
2018-08-10T00:33:33.329Z,0.00
2018-08-10T00:34:33.240Z,0.00
2018-08-10T00:35:33.156Z,0.00
2018-08-10T00:36:33.083Z,0.00
2018-08-10T00:37:33.093Z,0.00
2018-08-10T00:38:32.889Z,0.00
2018-08-10T00:39:32.801Z,0.00
2018-08-10T00:40:32.711Z,0.00
2018-08-10T00:41:32.640Z,0.00
2018-08-10T00:42:32.540Z,0.00
2018-08-10T00:43:32.449Z,0.00
2018-08-10T00:44:32.460Z,0.00
2018-08-10T00:45:32.276Z,0.00
2018-08-10T00:46:32.205Z,0.00
2018-08-10T00:47:32.098Z,0.00
2018-08-10T00:48:32.009Z,0.00
2018-08-10T00:49:31.922Z,0.00
2018-08-10T00:50:31.834Z,0.00
2018-08-10T00:51:31.862Z,0.00
2018-08-10T00:52:31.657Z,0.00
2018-08-10T00:53:31.570Z,0.00
2018-08-10T00:54:31.481Z,0.00
2018-08-10T00:55:31.397Z,0.00
2018-08-10T00:56:31.322Z,0.00
2018-08-10T00:57:31.219Z,0.00
2018-08-10T00:58:31.240Z,0.00
2018-08-10T00:59:31.041Z,0.00
2018-08-10T01:00:30.955Z,0.00
2018-08-10T01:01:30.882Z,0.00
2018-08-10T01:02:30.780Z,0.00
2018-08-10T01:03:30.688Z,0.00
2018-08-10T01:04:30.601Z,0.00
2018-08-10T01:05:30.515Z,0.00
2018-08-10T01:06:30.450Z,0.00
2018-08-10T01:07:30.335Z,0.00
2018-08-10T01:08:30.249Z,0.00
2018-08-10T01:09:30.161Z,0.00
2018-08-10T01:10:30.072Z,0.00
2018-08-10T01:11:30.001Z,0.00
2018-08-10T01:12:29.895Z,0.00
2018-08-10T01:13:29.899Z,0.00
2018-08-10T01:14:29.723Z,0.00
2018-08-10T01:15:29.643Z,0.00
2018-08-10T01:16:29.564Z,0.00
2018-08-10T01:17:29.456Z,0.00
2018-08-10T01:18:29.371Z,0.00
2018-08-10T01:19:29.375Z,0.00
2018-08-10T01:20:29.195Z,0.00
2018-08-10T01:21:29.121Z,0.00
2018-08-10T01:22:29.015Z,0.00
2018-08-10T01:23:28.926Z,0.00
2018-08-10T01:24:28.841Z,0.00
2018-08-10T01:25:28.753Z,0.00
2018-08-10T01:26:28.679Z,0.00
2018-08-10T01:27:28.574Z,0.00
2018-08-10T01:28:28.524Z,0.00
2018-08-10T01:29:28.398Z,0.00
2018-08-10T01:30:28.336Z,0.00
2018-08-10T01:31:28.225Z,0.00
2018-08-10T01:32:28.151Z,0.00
2018-08-10T01:33:28.045Z,0.00
2018-08-10T01:34:27.961Z,0.00
2018-08-10T01:35:27.870Z,0.00
2018-08-10T01:36:27.783Z,0.00
2018-08-10T01:37:27.709Z,0.00
2018-08-10T01:38:27.608Z,0.00
2018-08-10T01:39:27.517Z,0.00
2018-08-10T01:40:27.431Z,0.00
2018-08-10T01:41:27.350Z,0.00
2018-08-10T01:42:27.272Z,0.00
2018-08-10T01:43:27.161Z,0.00
2018-08-10T01:44:27.074Z,0.00
2018-08-10T01:45:26.991Z,0.00
2018-08-10T01:46:26.899Z,0.00
2018-08-10T01:47:26.828Z,0.00
2018-08-10T01:48:26.722Z,0.00
2018-08-10T01:49:26.634Z,0.00
2018-08-10T01:50:26.546Z,0.00
2018-08-10T01:51:26.476Z,0.00
2018-08-10T01:52:26.391Z,0.00
2018-08-10T01:53:26.283Z,0.00
2018-08-10T01:54:26.199Z,0.00
2018-08-10T01:55:26.106Z,0.00
2018-08-10T01:56:26.020Z,0.00
2018-08-10T01:57:25.946Z,0.00
2018-08-10T01:58:25.845Z,0.00
2018-08-10T01:59:25.752Z,0.00
2018-08-10T02:00:25.663Z,0.00
2018-08-10T02:01:25.579Z,0.00
2018-08-10T02:02:25.504Z,0.00
2018-08-10T02:03:25.400Z,0.00
2018-08-10T02:04:25.316Z,0.00
2018-08-10T02:05:25.227Z,0.00
2018-08-10T02:06:25.138Z,0.00
2018-08-10T02:07:25.064Z,0.00
2018-08-10T02:08:24.960Z,0.00
2018-08-10T02:09:24.872Z,0.00
2018-08-10T02:10:24.787Z,0.00
2018-08-10T02:11:24.694Z,0.00
2018-08-10T02:12:24.621Z,0.00
2018-08-10T02:13:24.520Z,0.00
2018-08-10T02:14:24.430Z,0.00
2018-08-10T02:15:24.343Z,0.00
2018-08-10T02:16:24.255Z,0.00
2018-08-10T02:17:24.183Z,0.00
2018-08-10T02:18:24.077Z,0.00
2018-08-10T02:19:23.988Z,0.00
2018-08-10T02:20:23.903Z,0.00
2018-08-10T02:21:23.814Z,0.00
2018-08-10T02:22:23.739Z,0.00
2018-08-10T02:23:23.636Z,0.00
2018-08-10T02:24:23.549Z,0.00
2018-08-10T02:25:23.459Z,0.00
2018-08-10T02:26:23.372Z,0.00
2018-08-10T02:27:23.299Z,0.00
2018-08-10T02:28:23.303Z,0.00
2018-08-10T02:29:23.105Z,0.00
2018-08-10T02:30:23.019Z,0.00
2018-08-10T02:31:22.930Z,0.00
2018-08-10T02:32:22.860Z,0.00
2018-08-10T02:33:22.758Z,0.00
2018-08-10T02:34:22.677Z,0.00
2018-08-10T02:35:22.692Z,0.00
2018-08-10T02:36:22.486Z,0.00
2018-08-10T02:37:22.418Z,0.00
2018-08-10T02:38:22.313Z,0.00
2018-08-10T02:39:22.224Z,0.00
2018-08-10T02:40:22.137Z,0.00
2018-08-10T02:41:22.049Z,0.00
2018-08-10T02:42:22.083Z,0.00
2018-08-10T02:43:21.866Z,0.00
2018-08-10T02:44:21.782Z,0.00
2018-08-10T02:45:21.692Z,0.00
2018-08-10T02:46:21.606Z,0.00
2018-08-10T02:47:21.534Z,0.00
2018-08-10T02:48:21.427Z,0.00
2018-08-10T02:49:21.441Z,0.00
2018-08-10T02:50:21.252Z,0.00
2018-08-10T02:51:21.167Z,0.00
2018-08-10T02:52:21.090Z,0.00
2018-08-10T02:53:20.994Z,0.00
2018-08-10T02:54:20.896Z,0.00
2018-08-10T02:55:20.817Z,0.00
2018-08-10T02:56:20.832Z,0.00
2018-08-10T02:57:20.647Z,0.00
2018-08-10T02:58:20.542Z,0.00
2018-08-10T02:59:20.454Z,0.00
2018-08-10T03:00:20.368Z,0.00
2018-08-10T03:01:20.280Z,0.00
2018-08-10T03:02:20.207Z,0.00
2018-08-10T03:03:20.202Z,0.00
2018-08-10T03:04:20.015Z,0.00
2018-08-10T03:05:19.924Z,0.00
2018-08-10T03:06:19.838Z,0.00
2018-08-10T03:07:19.763Z,0.00
2018-08-10T03:08:19.664Z,0.00
2018-08-10T03:09:19.573Z,0.00
2018-08-10T03:10:19.588Z,0.00
2018-08-10T03:11:19.391Z,0.00
2018-08-10T03:12:19.324Z,0.00
2018-08-10T03:13:19.221Z,0.00
2018-08-10T03:14:19.130Z,0.00
2018-08-10T03:15:19.039Z,0.00
2018-08-10T03:16:18.950Z,0.00
2018-08-10T03:17:18.997Z,0.00
2018-08-10T03:18:18.776Z,0.00
2018-08-10T03:19:18.685Z,0.00
2018-08-10T03:20:18.598Z,0.00
2018-08-10T03:21:18.507Z,0.00
2018-08-10T03:22:18.484Z,0.00
2018-08-10T03:23:18.349Z,0.00
2018-08-10T03:24:18.243Z,4.00
2018-08-10T03:25:18.151Z,4.00
2018-08-10T03:26:18.066Z,0.00
2018-08-10T03:27:17.977Z,0.00
2018-08-10T03:28:17.902Z,4.00
2018-08-10T03:29:17.800Z,4.00
2018-08-10T03:30:17.710Z,0.00
2018-08-10T03:31:17.620Z,4.00
2018-08-10T03:32:17.535Z,8.00
2018-08-10T03:33:17.463Z,8.00
2018-08-10T03:34:17.358Z,8.00
2018-08-10T03:35:17.271Z,12.00
2018-08-10T03:36:17.178Z,12.00
2018-08-10T03:37:17.091Z,12.00
2018-08-10T03:38:17.015Z,16.00
2018-08-10T03:39:16.911Z,16.00
2018-08-10T03:40:16.823Z,20.00
2018-08-10T03:41:16.736Z,24.00
2018-08-10T03:42:16.644Z,24.00
2018-08-10T03:43:16.572Z,24.00
2018-08-10T03:44:16.468Z,28.00
2018-08-10T03:45:16.376Z,36.00
2018-08-10T03:46:16.288Z,44.00
2018-08-10T03:47:16.203Z,52.00
2018-08-10T03:48:16.128Z,52.00
2018-08-10T03:49:16.020Z,52.00
2018-08-10T03:50:15.937Z,60.00
2018-08-10T03:51:15.842Z,60.00
2018-08-10T03:52:15.754Z,60.00
2018-08-10T03:53:15.684Z,60.00
2018-08-10T03:54:15.576Z,64.00
2018-08-10T03:55:15.486Z,68.00
2018-08-10T03:56:15.437Z,64.00
2018-08-10T03:57:15.312Z,68.00
2018-08-10T03:58:15.238Z,76.00
2018-08-10T03:59:15.131Z,88.00
2018-08-10T04:00:15.039Z,92.00
2018-08-10T04:01:14.954Z,100.00
2018-08-10T04:02:14.863Z,92.00
2018-08-10T04:03:14.789Z,84.00
2018-08-10T04:04:14.683Z,108.00
2018-08-10T04:05:14.595Z,128.00
2018-08-10T04:06:14.508Z,132.00
2018-08-10T04:07:14.415Z,172.00
2018-08-10T04:08:14.340Z,208.00
2018-08-10T04:09:14.236Z,240.00
2018-08-10T04:10:14.169Z,260.00
2018-08-10T04:11:14.058Z,272.00
2018-08-10T04:12:13.963Z,284.00
2018-08-10T04:13:13.896Z,300.00
2018-08-10T04:14:13.897Z,308.00
2018-08-10T04:15:13.702Z,308.00
2018-08-10T04:16:13.606Z,288.00
2018-08-10T04:17:13.518Z,264.00
2018-08-10T04:18:13.445Z,244.00
2018-08-10T04:19:13.337Z,240.00
2018-08-10T04:20:13.250Z,240.00
2018-08-10T04:21:13.176Z,248.00
2018-08-10T04:22:13.070Z,268.00
2018-08-10T04:23:12.997Z,284.00
2018-08-10T04:24:12.893Z,316.00
2018-08-10T04:25:12.807Z,344.00
2018-08-10T04:26:12.714Z,360.00
2018-08-10T04:27:12.621Z,368.00
2018-08-10T04:28:12.549Z,368.00
2018-08-10T04:29:12.444Z,376.00
2018-08-10T04:30:12.354Z,380.00
2018-08-10T04:31:12.267Z,392.00
2018-08-10T04:32:12.181Z,408.00
2018-08-10T04:33:12.104Z,416.00
2018-08-10T04:34:11.995Z,424.00
2018-08-10T04:35:11.909Z,440.00
2018-08-10T04:36:11.818Z,456.00
2018-08-10T04:37:11.726Z,460.00
2018-08-10T04:38:11.655Z,448.00
2018-08-10T04:39:11.547Z,436.00
2018-08-10T04:40:11.459Z,436.00
2018-08-10T04:41:11.369Z,400.00
2018-08-10T04:42:11.280Z,452.00
2018-08-10T04:43:11.208Z,472.00
2018-08-10T04:44:11.101Z,460.00
2018-08-10T04:45:11.010Z,452.00
2018-08-10T04:46:10.921Z,408.00
2018-08-10T04:47:10.833Z,416.00
2018-08-10T04:48:10.808Z,376.00
2018-08-10T04:49:10.650Z,388.00
2018-08-10T04:50:10.576Z,484.00
2018-08-10T04:51:10.477Z,488.00
2018-08-10T04:52:10.383Z,420.00
2018-08-10T04:53:10.312Z,384.00
2018-08-10T04:54:10.208Z,504.00
2018-08-10T04:55:10.180Z,588.00
2018-08-10T04:56:10.029Z,600.00
2018-08-10T04:57:09.939Z,588.00
2018-08-10T04:58:09.863Z,760.00
2018-08-10T04:59:09.761Z,964.00
2018-08-10T05:00:09.669Z,1080.00
2018-08-10T05:01:09.584Z,984.00
2018-08-10T05:02:09.495Z,1192.00
2018-08-10T05:03:09.421Z,1220.00
2018-08-10T05:04:09.312Z,1108.00
2018-08-10T05:05:09.225Z,1232.00
2018-08-10T05:06:09.133Z,1212.00
2018-08-10T05:07:09.044Z,1252.00
2018-08-10T05:08:08.960Z,1104.00
2018-08-10T05:09:08.884Z,996.00
2018-08-10T05:10:08.778Z,1080.00
2018-08-10T05:11:08.686Z,1240.00
2018-08-10T05:12:08.593Z,1304.00
2018-08-10T05:13:08.509Z,1328.00
2018-08-10T05:14:08.441Z,1356.00
2018-08-10T05:15:08.327Z,1436.00
2018-08-10T05:16:08.240Z,1560.00
2018-08-10T05:17:08.154Z,1732.00
2018-08-10T05:18:08.062Z,1932.00
2018-08-10T05:19:07.987Z,2144.00
2018-08-10T05:20:07.881Z,2388.00
2018-08-10T05:21:07.809Z,2680.00
2018-08-10T05:22:07.705Z,3012.00
2018-08-10T05:23:07.717Z,3324.00
2018-08-10T05:24:07.561Z,3656.00
2018-08-10T05:25:07.435Z,3948.00
2018-08-10T05:26:07.348Z,4148.00
2018-08-10T05:27:07.256Z,4296.00
2018-08-10T05:28:07.173Z,4404.00
2018-08-10T05:29:07.094Z,4424.00
2018-08-10T05:30:07.094Z,4544.00
2018-08-10T05:31:06.900Z,4560.00
2018-08-10T05:32:06.812Z,4540.00
2018-08-10T05:33:06.767Z,4444.00
2018-08-10T05:34:06.649Z,4304.00
2018-08-10T05:35:06.542Z,4140.00
2018-08-10T05:36:06.453Z,3944.00
2018-08-10T05:37:06.462Z,3756.00
2018-08-10T05:38:06.274Z,3596.00
2018-08-10T05:39:06.204Z,3548.00
2018-08-10T05:40:06.095Z,3608.00
2018-08-10T05:41:06.006Z,3752.00
2018-08-10T05:42:05.919Z,3948.00
2018-08-10T05:43:05.830Z,4220.00
2018-08-10T05:44:05.953Z,4504.00
2018-08-10T05:45:05.651Z,4772.00
2018-08-10T05:46:05.560Z,4984.00
2018-08-10T05:47:05.520Z,5140.00
2018-08-10T05:48:05.415Z,5300.00
2018-08-10T05:49:05.310Z,5484.00
2018-08-10T05:50:05.207Z,5608.00
2018-08-10T05:51:05.279Z,5756.00
2018-08-10T05:52:05.025Z,5996.00
2018-08-10T05:53:04.939Z,6276.00
2018-08-10T05:54:04.865Z,6492.00
2018-08-10T05:55:04.758Z,6652.00
2018-08-10T05:56:04.669Z,6760.00
2018-08-10T05:57:04.584Z,6856.00
2018-08-10T05:58:04.598Z,6924.00
2018-08-10T05:59:04.421Z,6972.00
2018-08-10T06:00:04.311Z,7152.00
2018-08-10T06:01:04.228Z,7372.00
2018-08-10T06:02:04.137Z,7480.00
2018-08-10T06:03:04.047Z,7556.00
2018-08-10T06:04:04.126Z,7700.00
2018-08-10T06:05:03.971Z,7836.00
2018-08-10T06:06:03.780Z,7872.00
2018-08-10T06:07:03.690Z,7872.00
2018-08-10T06:08:03.606Z,7804.00
2018-08-10T06:09:03.536Z,7688.00
2018-08-10T06:10:03.425Z,7484.00
2018-08-10T06:11:03.334Z,7012.00
2018-08-10T06:12:03.352Z,6544.00
2018-08-10T06:13:03.170Z,6212.00
2018-08-10T06:14:03.087Z,5996.00
2018-08-10T06:15:02.985Z,5828.00
2018-08-10T06:16:02.901Z,5664.00
2018-08-10T06:17:02.803Z,5560.00
2018-08-10T06:18:02.719Z,5508.00
2018-08-10T06:19:02.748Z,5428.00
2018-08-10T06:20:02.687Z,5312.00
2018-08-10T06:21:02.449Z,5208.00
2018-08-10T06:22:02.360Z,5148.00
2018-08-10T06:23:02.344Z,5220.00
2018-08-10T06:24:02.202Z,5384.00
2018-08-10T06:25:02.199Z,5492.00
2018-08-10T06:26:02.104Z,5492.00
2018-08-10T06:27:01.918Z,5528.00
2018-08-10T06:28:01.824Z,5600.00
2018-08-10T06:29:01.755Z,5476.00
2018-08-10T06:30:01.648Z,5524.00
2018-08-10T06:31:01.558Z,5700.00
2018-08-10T06:32:01.473Z,5680.00
2018-08-10T06:33:01.383Z,5416.00
2018-08-10T06:34:01.381Z,4856.00
2018-08-10T06:35:01.215Z,4232.00
2018-08-10T06:36:01.117Z,4132.00
2018-08-10T06:37:01.028Z,4320.00
2018-08-10T06:38:00.941Z,4728.00
2018-08-10T06:39:00.869Z,5088.00
2018-08-10T06:40:00.861Z,5216.00
2018-08-10T06:41:00.677Z,5180.00
2018-08-10T06:42:00.585Z,5012.00
2018-08-10T06:43:00.494Z,4924.00
2018-08-10T06:44:00.427Z,4908.00
2018-08-10T06:45:00.404Z,5012.00
2018-08-10T06:46:00.229Z,5148.00
2018-08-10T06:47:00.142Z,5268.00
2018-08-10T06:48:00.050Z,5316.00
2018-08-10T06:48:59.979Z,5372.00
2018-08-10T06:49:59.874Z,5624.00
2018-08-10T06:50:59.786Z,6052.00
2018-08-10T06:51:59.698Z,6484.00
2018-08-10T06:52:59.612Z,7068.00
2018-08-10T06:53:59.537Z,7676.00
2018-08-10T06:54:59.429Z,8388.00
2018-08-10T06:55:59.363Z,9148.00
2018-08-10T06:56:59.255Z,9552.00
2018-08-10T06:57:59.165Z,9804.00
2018-08-10T06:58:59.079Z,9828.00
2018-08-10T06:59:59.000Z,9788.00
2018-08-10T07:00:58.913Z,10180.00
2018-08-10T07:01:58.807Z,10696.00
2018-08-10T07:02:58.717Z,11064.00
2018-08-10T07:03:58.632Z,11328.00
2018-08-10T07:04:58.557Z,11940.00
2018-08-10T07:05:58.452Z,12432.00
2018-08-10T07:06:58.362Z,12888.00
2018-08-10T07:07:58.273Z,13100.00
2018-08-10T07:08:58.213Z,13224.00
2018-08-10T07:09:58.112Z,13440.00
2018-08-10T07:10:58.012Z,14360.00
2018-08-10T07:11:57.920Z,15456.00
2018-08-10T07:12:57.851Z,16324.00
2018-08-10T07:13:57.748Z,17600.00
2018-08-10T07:14:57.668Z,19040.00
2018-08-10T07:15:57.568Z,20832.00
2018-08-10T07:16:57.474Z,22656.00
2018-08-10T07:17:57.385Z,23552.00
2018-08-10T07:18:57.303Z,25632.00
2018-08-10T07:19:57.235Z,26240.00
2018-08-10T07:20:57.127Z,28320.00
2018-08-10T07:21:57.031Z,26176.00
2018-08-10T07:22:56.948Z,22400.00
2018-08-10T07:23:56.856Z,21344.00
2018-08-10T07:24:56.787Z,20832.00
2018-08-10T07:25:56.679Z,19456.00
2018-08-10T07:26:56.626Z,19584.00
2018-08-10T07:27:56.505Z,20608.00
2018-08-10T07:28:56.417Z,20320.00
2018-08-10T07:29:56.345Z,22048.00
2018-08-10T07:30:56.236Z,23072.00
2018-08-10T07:31:56.152Z,20800.00
2018-08-10T07:32:56.064Z,18176.00
2018-08-10T07:33:55.975Z,17760.00
2018-08-10T07:34:55.908Z,18496.00
2018-08-10T07:35:55.797Z,18944.00
2018-08-10T07:36:55.712Z,18368.00
2018-08-10T07:37:55.624Z,17952.00
2018-08-10T07:38:55.533Z,16900.00
2018-08-10T07:39:55.463Z,15716.00
2018-08-10T07:40:55.361Z,14356.00
2018-08-10T07:41:55.272Z,13112.00
2018-08-10T07:42:55.185Z,12028.00
2018-08-10T07:43:55.096Z,11500.00
2018-08-10T07:44:55.024Z,11588.00
2018-08-10T07:45:54.926Z,12168.00
2018-08-10T07:46:54.834Z,13204.00
2018-08-10T07:47:54.758Z,14500.00
2018-08-10T07:48:54.660Z,16108.00
2018-08-10T07:49:54.586Z,17920.00
2018-08-10T07:50:54.482Z,19776.00
2018-08-10T07:51:54.394Z,21568.00
2018-08-10T07:52:54.306Z,23360.00
2018-08-10T07:53:54.222Z,24480.00
2018-08-10T07:54:54.150Z,24448.00
2018-08-10T07:55:54.046Z,23776.00
2018-08-10T07:56:53.956Z,22720.00
2018-08-10T07:57:53.870Z,21888.00
2018-08-10T07:58:53.791Z,20992.00
2018-08-10T07:59:53.711Z,18496.00
2018-08-10T08:00:53.604Z,15376.00
2018-08-10T08:01:53.517Z,15012.00
2018-08-10T08:02:53.431Z,15648.00
2018-08-10T08:03:53.340Z,15668.00
2018-08-10T08:04:53.279Z,15352.00
2018-08-10T08:05:53.166Z,16436.00
2018-08-10T08:06:53.097Z,16212.00
2018-08-10T08:07:53.026Z,15088.00
2018-08-10T08:08:52.904Z,15860.00
2018-08-10T08:09:52.935Z,16252.00
2018-08-10T08:10:52.727Z,15772.00
2018-08-10T08:11:52.640Z,16140.00
2018-08-10T08:12:52.556Z,16716.00
2018-08-10T08:13:52.466Z,17888.00
2018-08-10T08:14:52.396Z,19232.00
2018-08-10T08:15:52.294Z,19328.00
2018-08-10T08:16:52.205Z,18816.00
2018-08-10T08:17:52.141Z,17120.00
2018-08-10T08:18:52.031Z,16404.00
2018-08-10T08:19:51.960Z,15524.00
2018-08-10T08:20:51.852Z,15424.00
2018-08-10T08:21:51.765Z,16068.00
2018-08-10T08:22:51.681Z,16112.00
2018-08-10T08:23:51.712Z,16000.00
2018-08-10T08:24:51.522Z,16472.00
2018-08-10T08:25:51.415Z,17376.00
2018-08-10T08:26:51.330Z,17728.00
2018-08-10T08:27:51.244Z,17792.00
2018-08-10T08:28:51.152Z,18304.00
2018-08-10T08:29:51.085Z,18912.00
2018-08-10T08:30:51.084Z,19296.00
2018-08-10T08:31:50.894Z,19456.00
2018-08-10T08:32:50.802Z,19616.00
2018-08-10T08:33:50.716Z,20896.00
2018-08-10T08:34:50.836Z,22368.00
2018-08-10T08:35:50.544Z,23712.00
2018-08-10T08:36:50.478Z,27168.00
2018-08-10T08:37:50.466Z,26816.00
2018-08-10T08:38:50.278Z,25728.00
2018-08-10T08:39:50.209Z,25824.00
2018-08-10T08:40:50.183Z,26848.00
2018-08-10T08:41:50.021Z,27872.00
2018-08-10T08:42:49.932Z,32992.00
2018-08-10T08:43:49.846Z,29760.00
2018-08-10T08:44:49.866Z,28128.00
2018-08-10T08:45:49.899Z,25248.00
2018-08-10T08:46:49.584Z,21376.00
2018-08-10T08:47:49.494Z,18784.00
2018-08-10T08:48:49.412Z,17248.00
2018-08-10T08:49:49.325Z,19648.00
2018-08-10T08:50:49.251Z,24384.00
2018-08-10T08:51:49.249Z,26848.00
2018-08-10T08:52:49.062Z,31232.00
2018-08-10T08:53:48.981Z,43680.00
2018-08-10T08:54:48.890Z,46432.00
2018-08-10T08:55:48.820Z,36160.00
2018-08-10T08:56:48.714Z,36128.00
2018-08-10T08:57:48.627Z,40800.00
2018-08-10T08:58:48.653Z,45984.00
2018-08-10T08:59:48.457Z,71584.00
2018-08-10T09:00:48.388Z,31008.00
2018-08-10T09:01:48.289Z,26112.00
2018-08-10T09:02:48.196Z,26368.00
2018-08-10T09:03:48.111Z,28960.00
2018-08-10T09:04:48.026Z,47008.00
2018-08-10T09:05:48.060Z,57696.00
2018-08-10T09:06:47.853Z,20320.00
2018-08-10T09:07:47.842Z,17056.00
2018-08-10T09:08:47.679Z,18080.00
2018-08-10T09:09:47.602Z,20512.00
2018-08-10T09:10:47.530Z,22912.00
2018-08-10T09:11:47.424Z,26176.00
2018-08-10T09:12:47.451Z,29344.00
2018-08-10T09:13:47.258Z,31168.00
2018-08-10T09:14:47.167Z,27968.00
2018-08-10T09:15:47.125Z,27488.00
2018-08-10T09:16:46.998Z,26784.00
2018-08-10T09:17:46.930Z,26368.00
2018-08-10T09:18:46.825Z,27488.00
2018-08-10T09:19:46.841Z,26496.00
2018-08-10T09:20:46.684Z,18848.00
2018-08-10T09:21:46.567Z,16928.00
2018-08-10T09:22:46.479Z,20128.00
2018-08-10T09:23:46.394Z,24448.00
2018-08-10T09:24:46.309Z,26560.00
2018-08-10T09:25:46.241Z,38336.00
2018-08-10T09:26:46.244Z,33120.00
2018-08-10T09:27:46.052Z,50976.00
2018-08-10T09:28:45.973Z,65536.00
2018-08-10T09:29:45.881Z,39936.00
2018-08-10T09:30:45.813Z,86560.00
2018-08-10T09:31:45.709Z,58304.00
2018-08-10T09:32:45.626Z,67776.00
2018-08-10T09:33:45.540Z,50816.00
2018-08-10T09:34:45.455Z,37472.00
2018-08-10T09:35:45.381Z,36416.00
2018-08-10T09:36:45.325Z,38656.00
2018-08-10T09:37:45.196Z,59648.00
2018-08-10T09:38:45.113Z,58560.00
2018-08-10T09:39:45.047Z,48000.00
2018-08-10T09:40:44.959Z,33984.00
2018-08-10T09:41:44.859Z,36736.00
2018-08-10T09:42:44.774Z,39104.00
2018-08-10T09:43:44.690Z,30400.00
2018-08-10T09:44:44.605Z,31872.00
2018-08-10T09:45:44.535Z,31392.00
2018-08-10T09:46:44.436Z,35072.00
2018-08-10T09:47:44.351Z,29856.00
2018-08-10T09:48:44.268Z,28928.00
2018-08-10T09:49:44.179Z,29824.00
2018-08-10T09:50:44.122Z,29536.00
2018-08-10T09:51:44.063Z,27712.00
2018-08-10T09:52:43.926Z,27968.00
2018-08-10T09:53:43.841Z,31904.00
2018-08-10T09:54:43.753Z,68960.00
2018-08-10T09:55:43.687Z,36032.00
2018-08-10T09:56:43.586Z,35744.00
2018-08-10T09:57:43.500Z,59424.00
2018-08-10T09:58:43.414Z,88320.00
2018-08-10T09:59:43.381Z,62048.00
2018-08-10T10:00:43.265Z,59264.00
2018-08-10T10:01:43.158Z,42976.00
2018-08-10T10:02:43.076Z,38368.00
2018-08-10T10:03:42.992Z,53184.00
2018-08-10T10:04:42.906Z,42560.00
2018-08-10T10:05:42.837Z,56736.00
2018-08-10T10:06:42.767Z,51104.00
2018-08-10T10:07:42.653Z,38432.00
2018-08-10T10:08:42.567Z,48128.00
2018-08-10T10:09:42.482Z,49312.00
2018-08-10T10:10:42.413Z,45536.00
2018-08-10T10:11:42.313Z,38592.00
2018-08-10T10:12:42.240Z,32864.00
2018-08-10T10:13:42.141Z,36768.00
2018-08-10T10:14:42.107Z,49792.00
2018-08-10T10:15:41.992Z,40832.00
2018-08-10T10:16:41.888Z,43904.00
2018-08-10T10:17:41.802Z,44448.00
2018-08-10T10:18:41.716Z,30304.00
2018-08-10T10:19:41.632Z,28032.00
2018-08-10T10:20:41.567Z,27168.00
2018-08-10T10:21:41.466Z,25568.00
2018-08-10T10:22:41.383Z,23776.00
2018-08-10T10:23:41.299Z,23648.00
2018-08-10T10:24:41.208Z,25088.00
2018-08-10T10:25:41.524Z,26912.00
2018-08-10T10:26:41.040Z,28064.00
2018-08-10T10:27:40.955Z,25440.00
2018-08-10T10:28:40.874Z,23776.00
2018-08-10T10:29:40.787Z,22976.00
2018-08-10T10:30:40.706Z,22208.00
2018-08-10T10:31:40.636Z,21216.00
2018-08-10T10:32:40.539Z,20512.00
2018-08-10T10:33:40.450Z,20160.00
2018-08-10T10:34:40.364Z,21088.00
2018-08-10T10:35:40.281Z,24288.00
2018-08-10T10:36:40.214Z,27776.00
2018-08-10T10:37:40.111Z,30304.00
2018-08-10T10:38:40.025Z,32768.00
2018-08-10T10:39:39.943Z,34048.00
2018-08-10T10:40:39.858Z,34016.00
2018-08-10T10:41:39.788Z,35168.00
2018-08-10T10:42:39.684Z,30240.00
2018-08-10T10:43:39.605Z,27648.00
2018-08-10T10:44:39.516Z,25504.00
2018-08-10T10:45:39.436Z,24256.00
2018-08-10T10:46:39.367Z,23776.00
2018-08-10T10:47:39.264Z,23904.00
2018-08-10T10:48:39.180Z,25184.00
2018-08-10T10:49:39.096Z,23520.00
2018-08-10T10:50:39.009Z,24192.00
2018-08-10T10:51:38.943Z,28832.00
2018-08-10T10:52:38.841Z,28160.00
2018-08-10T10:53:38.755Z,24864.00
2018-08-10T10:54:38.671Z,31200.00
2018-08-10T10:55:38.647Z,25728.00
2018-08-10T10:56:38.581Z,24992.00
2018-08-10T10:57:38.412Z,25472.00
2018-08-10T10:58:38.328Z,25888.00
2018-08-10T10:59:38.243Z,25952.00
2018-08-10T11:00:38.157Z,26720.00
2018-08-10T11:01:38.090Z,27104.00
2018-08-10T11:02:37.987Z,25248.00
2018-08-10T11:03:37.902Z,22496.00
2018-08-10T11:04:37.818Z,20768.00
2018-08-10T11:05:37.730Z,21632.00
2018-08-10T11:06:37.680Z,24992.00
2018-08-10T11:07:37.565Z,26464.00
2018-08-10T11:08:37.476Z,27328.00
2018-08-10T11:09:37.398Z,26976.00
2018-08-10T11:10:37.307Z,25344.00
2018-08-10T11:11:37.237Z,23424.00
2018-08-10T11:12:37.134Z,22464.00
2018-08-10T11:13:37.049Z,22880.00
2018-08-10T11:14:36.964Z,23328.00
2018-08-10T11:15:36.877Z,24480.00
2018-08-10T11:16:36.808Z,27200.00
2018-08-10T11:17:36.708Z,25184.00
2018-08-10T11:18:36.624Z,23232.00
2018-08-10T11:19:36.555Z,21664.00
2018-08-10T11:20:36.450Z,19456.00
2018-08-10T11:21:36.381Z,18048.00
2018-08-10T11:22:36.280Z,18496.00
2018-08-10T11:23:36.197Z,19808.00
2018-08-10T11:24:36.109Z,21216.00
2018-08-10T11:25:36.203Z,22304.00
2018-08-10T11:26:35.998Z,21056.00
2018-08-10T11:27:35.854Z,19072.00
2018-08-10T11:28:35.774Z,17120.00
2018-08-10T11:29:35.681Z,15616.00
2018-08-10T11:30:35.594Z,15312.00
2018-08-10T11:31:35.540Z,15932.00
2018-08-10T11:32:35.547Z,16628.00
2018-08-10T11:33:35.342Z,17408.00
2018-08-10T11:34:35.253Z,18144.00
2018-08-10T11:35:35.169Z,18624.00
2018-08-10T11:36:35.101Z,18752.00
2018-08-10T11:37:34.997Z,19104.00
2018-08-10T11:38:34.913Z,20992.00
2018-08-10T11:39:34.933Z,25408.00
2018-08-10T11:40:34.740Z,33888.00
2018-08-10T11:41:34.793Z,37056.00
2018-08-10T11:42:34.569Z,38208.00
2018-08-10T11:43:34.482Z,40096.00
2018-08-10T11:44:34.398Z,42464.00
2018-08-10T11:45:34.312Z,77920.00
2018-08-10T11:46:34.351Z,88224.00
2018-08-10T11:47:34.138Z,137312.00
2018-08-10T11:48:34.054Z,118816.00
2018-08-10T11:49:33.971Z,112064.00
2018-08-10T11:50:33.882Z,48480.00
2018-08-10T11:51:33.815Z,41280.00
2018-08-10T11:52:33.755Z,63648.00
2018-08-10T11:53:33.739Z,32672.00
2018-08-10T11:54:33.544Z,30944.00
2018-08-10T11:55:33.462Z,28736.00
2018-08-10T11:56:33.392Z,26848.00
2018-08-10T11:57:33.339Z,25056.00
2018-08-10T11:58:33.209Z,25856.00
2018-08-10T11:59:33.124Z,28320.00
2018-08-10T12:00:33.142Z,33920.00
2018-08-10T12:01:32.974Z,35968.00
2018-08-10T12:02:32.871Z,31616.00
2018-08-10T12:03:32.788Z,29984.00
2018-08-10T12:04:32.703Z,26816.00
2018-08-10T12:05:32.622Z,23904.00
2018-08-10T12:06:32.554Z,24320.00
2018-08-10T12:07:32.556Z,25024.00
2018-08-10T12:08:32.368Z,25408.00
2018-08-10T12:09:32.285Z,25184.00
2018-08-10T12:10:32.195Z,25760.00
2018-08-10T12:11:32.130Z,26560.00
2018-08-10T12:12:32.069Z,25312.00
2018-08-10T12:13:31.946Z,23424.00
2018-08-10T12:14:31.974Z,21728.00
2018-08-10T12:15:31.778Z,20768.00
2018-08-10T12:16:31.711Z,20384.00
2018-08-10T12:17:31.602Z,20256.00
2018-08-10T12:18:31.526Z,20192.00